sensor_id;sensor_type;location;lat;lon;timestamp;temperature;humidity
14016;DHT22;7083;48.854;9.158;2022-12-08T00:00:48;-1.60;99.90
14016;DHT22;7083;48.854;9.158;2022-12-08T00:03:15;-1.60;99.90
14016;DHT22;7083;48.854;9.158;2022-12-08T00:05:46;-1.60;99.90
14016;DHT22;7083;48.854;9.158;2022-12-08T00:08:31;-1.50;99.90
14016;DHT22;7083;48.854;9.158;2022-12-08T00:11:16;-1.40;99.90
14016;DHT22;7083;48.854;9.158;2022-12-08T00:13:44;-1.30;99.90
14016;DHT22;7083;48.854;9.158;2022-12-08T00:16:12;-1.20;99.90
14016;DHT22;7083;48.854;9.158;2022-12-08T00:18:39;-1.00;99.90
14016;DHT22;7083;48.854;9.158;2022-12-08T00:21:06;-0.90;99.90
14016;DHT22;7083;48.854;9.158;2022-12-08T00:23:33;-0.80;99.90
14016;DHT22;7083;48.854;9.158;2022-12-08T00:26:03;-0.70;99.90
14016;DHT22;7083;48.854;9.158;2022-12-08T00:28:32;-0.70;99.90
14016;DHT22;7083;48.854;9.158;2022-12-08T00:30:59;-0.70;99.90
14016;DHT22;7083;48.854;9.158;2022-12-08T00:33:27;-0.80;99.90
14016;DHT22;7083;48.854;9.158;2022-12-08T00:35:54;-0.80;99.90
14016;DHT22;7083;48.854;9.158;2022-12-08T00:38:21;-0.90;99.90
14016;DHT22;7083;48.854;9.158;2022-12-08T00:40:48;-0.90;99.90
14016;DHT22;7083;48.854;9.158;2022-12-08T00:43:14;-1.00;99.90
14016;DHT22;7083;48.854;9.158;2022-12-08T00:45:42;-1.00;99.90
14016;DHT22;7083;48.854;9.158;2022-12-08T00:48:10;-1.10;99.90
14016;DHT22;7083;48.854;9.158;2022-12-08T00:50:38;-1.20;99.90
14016;DHT22;7083;48.854;9.158;2022-12-08T00:53:04;-1.20;99.90
14016;DHT22;7083;48.854;9.158;2022-12-08T00:55:31;-1.30;99.90
14016;DHT22;7083;48.854;9.158;2022-12-08T00:57:58;-1.30;99.90
14016;DHT22;7083;48.854;9.158;2022-12-08T01:00:25;-1.40;99.90
14016;DHT22;7083;48.854;9.158;2022-12-08T01:02:51;-1.40;99.90
14016;DHT22;7083;48.854;9.158;2022-12-08T01:05:18;-1.50;99.90
14016;DHT22;7083;48.854;9.158;2022-12-08T01:07:46;-1.50;99.90
14016;DHT22;7083;48.854;9.158;2022-12-08T01:10:13;-1.50;99.90
14016;DHT22;7083;48.854;9.158;2022-12-08T01:12:40;-1.60;99.90
14016;DHT22;7083;48.854;9.158;2022-12-08T01:15:08;-1.60;99.90
14016;DHT22;7083;48.854;9.158;2022-12-08T01:17:36;-1.60;99.90
14016;DHT22;7083;48.854;9.158;2022-12-08T01:20:04;-1.50;99.90
14016;DHT22;7083;48.854;9.158;2022-12-08T01:22:33;-1.30;99.90
14016;DHT22;7083;48.854;9.158;2022-12-08T01:25:01;-1.20;99.90
14016;DHT22;7083;48.854;9.158;2022-12-08T01:27:28;-1.10;99.90
14016;DHT22;7083;48.854;9.158;2022-12-08T01:29:54;-1.00;99.90
14016;DHT22;7083;48.854;9.158;2022-12-08T01:32:21;-1.00;99.90
14016;DHT22;7083;48.854;9.158;2022-12-08T01:34:48;-1.00;99.90
14016;DHT22;7083;48.854;9.158;2022-12-08T01:39:46;-1.10;99.90
14016;DHT22;7083;48.854;9.158;2022-12-08T01:42:20;-1.20;99.90
14016;DHT22;7083;48.854;9.158;2022-12-08T01:44:59;-1.20;99.90
14016;DHT22;7083;48.854;9.158;2022-12-08T01:47:33;-1.30;99.90
14016;DHT22;7083;48.854;9.158;2022-12-08T01:50:02;-1.40;99.90
14016;DHT22;7083;48.854;9.158;2022-12-08T01:52:33;-1.40;99.90
14016;DHT22;7083;48.854;9.158;2022-12-08T01:55:06;-1.50;99.90
14016;DHT22;7083;48.854;9.158;2022-12-08T01:57:39;-1.60;99.90
14016;DHT22;7083;48.854;9.158;2022-12-08T02:00:09;-1.70;99.90
14016;DHT22;7083;48.854;9.158;2022-12-08T02:02:43;-1.70;99.90
14016;DHT22;7083;48.854;9.158;2022-12-08T02:05:12;-1.80;99.90
14016;DHT22;7083;48.854;9.158;2022-12-08T02:07:39;-1.90;99.90
14016;DHT22;7083;48.854;9.158;2022-12-08T02:10:07;-1.90;99.90
14016;DHT22;7083;48.854;9.158;2022-12-08T02:12:35;-1.90;99.90
14016;DHT22;7083;48.854;9.158;2022-12-08T02:15:03;-2.00;99.90
14016;DHT22;7083;48.854;9.158;2022-12-08T02:17:42;-2.00;99.90
14016;DHT22;7083;48.854;9.158;2022-12-08T02:20:20;-1.90;99.90
14016;DHT22;7083;48.854;9.158;2022-12-08T02:22:55;-2.00;99.90
14016;DHT22;7083;48.854;9.158;2022-12-08T02:25:30;-2.00;99.90
14016;DHT22;7083;48.854;9.158;2022-12-08T02:28:04;-2.00;99.90
14016;DHT22;7083;48.854;9.158;2022-12-08T02:30:42;-2.10;99.90
14016;DHT22;7083;48.854;9.158;2022-12-08T02:33:47;-2.10;99.90
14016;DHT22;7083;48.854;9.158;2022-12-08T02:36:20;-2.10;99.90
14016;DHT22;7083;48.854;9.158;2022-12-08T02:38:55;-2.20;99.90
14016;DHT22;7083;48.854;9.158;2022-12-08T02:41:31;-2.10;99.90
14016;DHT22;7083;48.854;9.158;2022-12-08T02:44:07;-2.10;99.90
14016;DHT22;7083;48.854;9.158;2022-12-08T02:46:39;-2.10;99.90
14016;DHT22;7083;48.854;9.158;2022-12-08T02:49:09;-2.10;99.90
14016;DHT22;7083;48.854;9.158;2022-12-08T02:51:39;-2.10;99.90
14016;DHT22;7083;48.854;9.158;2022-12-08T02:54:05;-2.10;99.90
14016;DHT22;7083;48.854;9.158;2022-12-08T02:56:46;-2.10;99.90
14016;DHT22;7083;48.854;9.158;2022-12-08T02:59:26;-2.10;99.90
14016;DHT22;7083;48.854;9.158;2022-12-08T03:02:10;-2.20;99.90
14016;DHT22;7083;48.854;9.158;2022-12-08T03:04:45;-2.10;99.90
14016;DHT22;7083;48.854;9.158;2022-12-08T03:07:20;-2.20;99.90
14016;DHT22;7083;48.854;9.158;2022-12-08T03:09:52;-2.20;99.90
14016;DHT22;7083;48.854;9.158;2022-12-08T03:12:25;-2.20;99.90
14016;DHT22;7083;48.854;9.158;2022-12-08T03:14:58;-2.20;99.90
14016;DHT22;7083;48.854;9.158;2022-12-08T03:17:28;-2.20;99.90
14016;DHT22;7083;48.854;9.158;2022-12-08T03:20:00;-2.20;99.90
14016;DHT22;7083;48.854;9.158;2022-12-08T03:22:28;-2.20;99.90
14016;DHT22;7083;48.854;9.158;2022-12-08T03:24:55;-2.30;99.90
14016;DHT22;7083;48.854;9.158;2022-12-08T03:27:24;-2.40;99.90
14016;DHT22;7083;48.854;9.158;2022-12-08T03:29:53;-2.40;99.90
14016;DHT22;7083;48.854;9.158;2022-12-08T03:32:28;-2.50;99.90
14016;DHT22;7083;48.854;9.158;2022-12-08T03:34:59;-2.50;99.90
14016;DHT22;7083;48.854;9.158;2022-12-08T03:37:27;-2.50;99.90
14016;DHT22;7083;48.854;9.158;2022-12-08T03:39:55;-2.50;99.90
14016;DHT22;7083;48.854;9.158;2022-12-08T03:42:22;-2.60;99.90
14016;DHT22;7083;48.854;9.158;2022-12-08T03:44:49;-2.60;99.90
14016;DHT22;7083;48.854;9.158;2022-12-08T03:47:15;-2.60;99.90
14016;DHT22;7083;48.854;9.158;2022-12-08T03:49:42;-2.70;99.90
14016;DHT22;7083;48.854;9.158;2022-12-08T03:52:10;-2.70;99.90
14016;DHT22;7083;48.854;9.158;2022-12-08T03:54:37;-2.70;99.90
14016;DHT22;7083;48.854;9.158;2022-12-08T03:57:04;-2.70;99.90
14016;DHT22;7083;48.854;9.158;2022-12-08T03:59:30;-2.80;99.90
14016;DHT22;7083;48.854;9.158;2022-12-08T04:01:57;-2.80;99.90
14016;DHT22;7083;48.854;9.158;2022-12-08T04:04:24;-2.80;99.90
14016;DHT22;7083;48.854;9.158;2022-12-08T04:06:51;-2.90;99.90
14016;DHT22;7083;48.854;9.158;2022-12-08T04:09:19;-2.90;99.90
14016;DHT22;7083;48.854;9.158;2022-12-08T04:11:45;-3.00;99.90
14016;DHT22;7083;48.854;9.158;2022-12-08T04:14:12;-3.00;99.90
14016;DHT22;7083;48.854;9.158;2022-12-08T04:16:39;-3.00;99.90
14016;DHT22;7083;48.854;9.158;2022-12-08T04:19:06;-3.00;99.90
14016;DHT22;7083;48.854;9.158;2022-12-08T04:21:33;-3.00;99.90
14016;DHT22;7083;48.854;9.158;2022-12-08T04:23:59;-3.10;99.90
14016;DHT22;7083;48.854;9.158;2022-12-08T04:26:28;-3.10;99.90
14016;DHT22;7083;48.854;9.158;2022-12-08T04:28:55;-3.10;99.90
14016;DHT22;7083;48.854;9.158;2022-12-08T04:31:22;-3.00;99.90
14016;DHT22;7083;48.854;9.158;2022-12-08T04:33:48;-3.10;99.90
14016;DHT22;7083;48.854;9.158;2022-12-08T04:36:15;-3.10;99.90
14016;DHT22;7083;48.854;9.158;2022-12-08T04:38:42;-3.00;99.90
14016;DHT22;7083;48.854;9.158;2022-12-08T04:41:09;-3.00;99.90
14016;DHT22;7083;48.854;9.158;2022-12-08T04:43:37;-3.00;99.90
14016;DHT22;7083;48.854;9.158;2022-12-08T04:46:05;-3.00;99.90
14016;DHT22;7083;48.854;9.158;2022-12-08T04:48:32;-3.00;99.90
14016;DHT22;7083;48.854;9.158;2022-12-08T04:50:59;-2.90;99.90
14016;DHT22;7083;48.854;9.158;2022-12-08T04:53:26;-2.90;99.90
14016;DHT22;7083;48.854;9.158;2022-12-08T04:55:53;-2.90;99.90
14016;DHT22;7083;48.854;9.158;2022-12-08T04:58:20;-2.90;99.90
14016;DHT22;7083;48.854;9.158;2022-12-08T05:00:48;-2.90;99.90
14016;DHT22;7083;48.854;9.158;2022-12-08T05:03:16;-2.90;99.90
14016;DHT22;7083;48.854;9.158;2022-12-08T05:05:42;-2.90;99.90
14016;DHT22;7083;48.854;9.158;2022-12-08T05:08:10;-2.90;99.90
14016;DHT22;7083;48.854;9.158;2022-12-08T05:10:37;-2.90;99.90
14016;DHT22;7083;48.854;9.158;2022-12-08T05:13:04;-2.90;99.90
14016;DHT22;7083;48.854;9.158;2022-12-08T05:15:30;-2.90;99.90
14016;DHT22;7083;48.854;9.158;2022-12-08T05:17:58;-2.90;99.90
14016;DHT22;7083;48.854;9.158;2022-12-08T05:20:25;-2.90;99.90
14016;DHT22;7083;48.854;9.158;2022-12-08T05:22:52;-2.90;99.90
14016;DHT22;7083;48.854;9.158;2022-12-08T05:25:19;-2.90;99.90
14016;DHT22;7083;48.854;9.158;2022-12-08T05:27:46;-2.90;99.90
14016;DHT22;7083;48.854;9.158;2022-12-08T05:30:13;-2.90;99.90
14016;DHT22;7083;48.854;9.158;2022-12-08T05:32:40;-2.90;99.90
14016;DHT22;7083;48.854;9.158;2022-12-08T05:35:08;-2.90;99.90
14016;DHT22;7083;48.854;9.158;2022-12-08T05:37:35;-2.90;99.90
14016;DHT22;7083;48.854;9.158;2022-12-08T05:40:03;-2.90;99.90
14016;DHT22;7083;48.854;9.158;2022-12-08T05:42:30;-2.90;99.90
14016;DHT22;7083;48.854;9.158;2022-12-08T05:44:56;-2.90;99.90
14016;DHT22;7083;48.854;9.158;2022-12-08T05:47:23;-2.80;99.90
14016;DHT22;7083;48.854;9.158;2022-12-08T05:49:50;-2.80;99.90
14016;DHT22;7083;48.854;9.158;2022-12-08T05:52:18;-2.80;99.90
14016;DHT22;7083;48.854;9.158;2022-12-08T05:54:45;-2.80;99.90
14016;DHT22;7083;48.854;9.158;2022-12-08T05:57:12;-2.80;99.90
14016;DHT22;7083;48.854;9.158;2022-12-08T05:59:39;-2.70;99.90
14016;DHT22;7083;48.854;9.158;2022-12-08T06:02:06;-2.70;99.90
14016;DHT22;7083;48.854;9.158;2022-12-08T06:04:34;-2.70;99.90
14016;DHT22;7083;48.854;9.158;2022-12-08T06:07:04;-2.40;99.90
14016;DHT22;7083;48.854;9.158;2022-12-08T06:09:32;-3.20;99.90
14016;DHT22;7083;48.854;9.158;2022-12-08T06:11:59;-2.60;99.90
14016;DHT22;7083;48.854;9.158;2022-12-08T06:14:26;-2.60;99.90
14016;DHT22;7083;48.854;9.158;2022-12-08T06:16:53;-2.60;99.90
14016;DHT22;7083;48.854;9.158;2022-12-08T06:19:20;-2.60;99.90
14016;DHT22;7083;48.854;9.158;2022-12-08T06:21:46;-2.70;99.90
14016;DHT22;7083;48.854;9.158;2022-12-08T06:24:13;-2.70;99.90
14016;DHT22;7083;48.854;9.158;2022-12-08T06:26:41;-2.60;99.90
14016;DHT22;7083;48.854;9.158;2022-12-08T06:29:08;-2.70;99.90
14016;DHT22;7083;48.854;9.158;2022-12-08T06:31:35;-2.70;99.90
14016;DHT22;7083;48.854;9.158;2022-12-08T06:34:01;-2.70;99.90
14016;DHT22;7083;48.854;9.158;2022-12-08T06:36:29;-2.70;99.90
14016;DHT22;7083;48.854;9.158;2022-12-08T06:38:55;-2.70;99.90
14016;DHT22;7083;48.854;9.158;2022-12-08T06:41:23;-2.80;99.90
14016;DHT22;7083;48.854;9.158;2022-12-08T06:43:51;-2.80;99.90
14016;DHT22;7083;48.854;9.158;2022-12-08T06:46:19;-2.80;99.90
14016;DHT22;7083;48.854;9.158;2022-12-08T06:48:46;-2.80;99.90
14016;DHT22;7083;48.854;9.158;2022-12-08T06:51:16;-2.70;99.90
14016;DHT22;7083;48.854;9.158;2022-12-08T06:53:44;-2.80;99.90
14016;DHT22;7083;48.854;9.158;2022-12-08T06:56:12;-2.70;99.90
14016;DHT22;7083;48.854;9.158;2022-12-08T06:58:40;-2.70;99.90
14016;DHT22;7083;48.854;9.158;2022-12-08T07:01:10;-2.60;99.90
14016;DHT22;7083;48.854;9.158;2022-12-08T07:03:37;-2.50;99.90
14016;DHT22;7083;48.854;9.158;2022-12-08T07:06:05;-2.50;99.90
14016;DHT22;7083;48.854;9.158;2022-12-08T07:08:33;-2.40;99.90
14016;DHT22;7083;48.854;9.158;2022-12-08T07:11:06;-2.30;99.90
14016;DHT22;7083;48.854;9.158;2022-12-08T07:13:33;-2.30;99.90
14016;DHT22;7083;48.854;9.158;2022-12-08T07:16:02;-2.30;99.90
14016;DHT22;7083;48.854;9.158;2022-12-08T07:18:30;-2.20;99.90
14016;DHT22;7083;48.854;9.158;2022-12-08T07:21:02;-2.20;99.90
14016;DHT22;7083;48.854;9.158;2022-12-08T07:23:29;-2.10;99.90
14016;DHT22;7083;48.854;9.158;2022-12-08T07:25:59;-2.10;99.90
14016;DHT22;7083;48.854;9.158;2022-12-08T07:28:26;-2.00;99.90
14016;DHT22;7083;48.854;9.158;2022-12-08T07:30:52;-2.00;99.90
14016;DHT22;7083;48.854;9.158;2022-12-08T07:33:19;-1.90;99.90
14016;DHT22;7083;48.854;9.158;2022-12-08T07:35:54;-2.00;99.90
14016;DHT22;7083;48.854;9.158;2022-12-08T07:38:21;-2.00;99.90
14016;DHT22;7083;48.854;9.158;2022-12-08T07:40:48;-2.00;99.90
14016;DHT22;7083;48.854;9.158;2022-12-08T07:43:15;-2.00;99.90
14016;DHT22;7083;48.854;9.158;2022-12-08T07:45:42;-2.00;99.90
14016;DHT22;7083;48.854;9.158;2022-12-08T07:48:08;-2.00;99.90
14016;DHT22;7083;48.854;9.158;2022-12-08T07:50:35;-2.00;99.90
14016;DHT22;7083;48.854;9.158;2022-12-08T07:53:03;-2.00;99.90
14016;DHT22;7083;48.854;9.158;2022-12-08T07:55:30;-2.00;99.90
14016;DHT22;7083;48.854;9.158;2022-12-08T07:57:57;-2.00;99.90
14016;DHT22;7083;48.854;9.158;2022-12-08T08:00:24;-2.00;99.90
14016;DHT22;7083;48.854;9.158;2022-12-08T08:02:51;-2.00;99.90
14016;DHT22;7083;48.854;9.158;2022-12-08T08:05:17;-2.00;99.90
14016;DHT22;7083;48.854;9.158;2022-12-08T08:07:45;-2.00;99.90
14016;DHT22;7083;48.854;9.158;2022-12-08T08:10:14;-2.00;99.90
14016;DHT22;7083;48.854;9.158;2022-12-08T08:12:40;-1.90;99.90
14016;DHT22;7083;48.854;9.158;2022-12-08T08:15:08;-1.90;99.90
14016;DHT22;7083;48.854;9.158;2022-12-08T08:17:35;-1.80;99.90
14016;DHT22;7083;48.854;9.158;2022-12-08T08:20:03;-1.80;99.90
14016;DHT22;7083;48.854;9.158;2022-12-08T08:22:31;-1.80;99.90
14016;DHT22;7083;48.854;9.158;2022-12-08T08:24:58;-1.70;99.90
14016;DHT22;7083;48.854;9.158;2022-12-08T08:27:27;-1.60;99.90
14016;DHT22;7083;48.854;9.158;2022-12-08T08:29:53;-1.60;99.90
14016;DHT22;7083;48.854;9.158;2022-12-08T08:32:20;-1.50;99.90
14016;DHT22;7083;48.854;9.158;2022-12-08T08:34:47;-1.50;99.90
14016;DHT22;7083;48.854;9.158;2022-12-08T08:37:14;-1.40;99.90
14016;DHT22;7083;48.854;9.158;2022-12-08T08:39:40;-1.40;99.90
14016;DHT22;7083;48.854;9.158;2022-12-08T08:42:08;-1.30;99.90
14016;DHT22;7083;48.854;9.158;2022-12-08T08:44:36;-1.30;99.90
14016;DHT22;7083;48.854;9.158;2022-12-08T08:47:03;-1.20;99.90
14016;DHT22;7083;48.854;9.158;2022-12-08T08:49:30;-1.10;99.90
14016;DHT22;7083;48.854;9.158;2022-12-08T08:51:56;-1.10;99.90
14016;DHT22;7083;48.854;9.158;2022-12-08T08:54:23;-1.00;99.90
14016;DHT22;7083;48.854;9.158;2022-12-08T08:56:50;-1.00;99.90
14016;DHT22;7083;48.854;9.158;2022-12-08T08:59:17;-0.90;99.90
14016;DHT22;7083;48.854;9.158;2022-12-08T09:01:45;-0.80;99.90
14016;DHT22;7083;48.854;9.158;2022-12-08T09:04:12;-0.80;99.90
14016;DHT22;7083;48.854;9.158;2022-12-08T09:06:38;-1.00;99.90
14016;DHT22;7083;48.854;9.158;2022-12-08T09:09:07;-0.60;99.90
14016;DHT22;7083;48.854;9.158;2022-12-08T09:11:33;-0.60;99.90
14016;DHT22;7083;48.854;9.158;2022-12-08T09:14:00;-0.60;99.90
14016;DHT22;7083;48.854;9.158;2022-12-08T09:16:27;-0.50;99.90
14016;DHT22;7083;48.854;9.158;2022-12-08T09:18:55;-0.50;99.90
14016;DHT22;7083;48.854;9.158;2022-12-08T09:21:23;-0.40;99.90
14016;DHT22;7083;48.854;9.158;2022-12-08T09:23:53;-0.40;99.90
14016;DHT22;7083;48.854;9.158;2022-12-08T09:26:20;-0.30;99.90
14016;DHT22;7083;48.854;9.158;2022-12-08T09:28:47;-0.30;99.90
14016;DHT22;7083;48.854;9.158;2022-12-08T09:31:15;-0.20;99.90
14016;DHT22;7083;48.854;9.158;2022-12-08T09:33:42;-0.20;99.90
14016;DHT22;7083;48.854;9.158;2022-12-08T09:36:10;-0.10;99.90
14016;DHT22;7083;48.854;9.158;2022-12-08T09:38:38;-0.10;99.90
14016;DHT22;7083;48.854;9.158;2022-12-08T09:41:13;0.00;99.90
14016;DHT22;7083;48.854;9.158;2022-12-08T09:43:53;0.00;99.90
14016;DHT22;7083;48.854;9.158;2022-12-08T09:46:25;0.10;99.90
14016;DHT22;7083;48.854;9.158;2022-12-08T09:48:56;0.10;99.90
14016;DHT22;7083;48.854;9.158;2022-12-08T09:51:26;0.10;99.90
14016;DHT22;7083;48.854;9.158;2022-12-08T09:53:59;0.20;99.90
14016;DHT22;7083;48.854;9.158;2022-12-08T09:56:31;0.20;99.90
14016;DHT22;7083;48.854;9.158;2022-12-08T09:59:02;0.30;99.90
14016;DHT22;7083;48.854;9.158;2022-12-08T10:01:32;0.30;99.90
14016;DHT22;7083;48.854;9.158;2022-12-08T10:04:03;0.30;99.90
14016;DHT22;7083;48.854;9.158;2022-12-08T10:06:35;0.40;99.90
14016;DHT22;7083;48.854;9.158;2022-12-08T10:09:11;0.50;99.90
14016;DHT22;7083;48.854;9.158;2022-12-08T10:11:46;0.50;99.90
14016;DHT22;7083;48.854;9.158;2022-12-08T10:14:22;0.50;99.90
14016;DHT22;7083;48.854;9.158;2022-12-08T10:16:58;0.60;99.90
14016;DHT22;7083;48.854;9.158;2022-12-08T10:19:26;0.60;99.90
14016;DHT22;7083;48.854;9.158;2022-12-08T10:21:56;0.70;99.90
14016;DHT22;7083;48.854;9.158;2022-12-08T10:24:25;0.70;99.90
14016;DHT22;7083;48.854;9.158;2022-12-08T10:26:57;0.80;99.90
14016;DHT22;7083;48.854;9.158;2022-12-08T10:29:23;0.90;99.90
14016;DHT22;7083;48.854;9.158;2022-12-08T10:31:50;1.00;99.90
14016;DHT22;7083;48.854;9.158;2022-12-08T10:34:19;1.20;99.90
14016;DHT22;7083;48.854;9.158;2022-12-08T10:36:50;1.40;99.90
14016;DHT22;7083;48.854;9.158;2022-12-08T10:39:32;1.60;99.90
14016;DHT22;7083;48.854;9.158;2022-12-08T10:44:52;2.20;99.90
14016;DHT22;7083;48.854;9.158;2022-12-08T10:47:21;2.40;99.90
14016;DHT22;7083;48.854;9.158;2022-12-08T10:50:11;2.50;99.90
14016;DHT22;7083;48.854;9.158;2022-12-08T10:52:41;2.70;99.90
14016;DHT22;7083;48.854;9.158;2022-12-08T10:55:18;2.80;99.90
14016;DHT22;7083;48.854;9.158;2022-12-08T10:57:45;3.00;99.90
14016;DHT22;7083;48.854;9.158;2022-12-08T11:00:15;3.10;99.90
14016;DHT22;7083;48.854;9.158;2022-12-08T11:02:56;3.20;99.90
14016;DHT22;7083;48.854;9.158;2022-12-08T11:05:27;3.30;99.90
14016;DHT22;7083;48.854;9.158;2022-12-08T11:07:54;3.40;99.90
14016;DHT22;7083;48.854;9.158;2022-12-08T11:10:31;3.50;99.90
14016;DHT22;7083;48.854;9.158;2022-12-08T11:13:01;3.60;99.90
14016;DHT22;7083;48.854;9.158;2022-12-08T11:15:36;3.60;99.90
14016;DHT22;7083;48.854;9.158;2022-12-08T11:18:11;3.70;99.90
14016;DHT22;7083;48.854;9.158;2022-12-08T11:20:45;3.70;99.90
14016;DHT22;7083;48.854;9.158;2022-12-08T11:23:20;3.70;99.90
14016;DHT22;7083;48.854;9.158;2022-12-08T11:25:49;3.70;99.90
14016;DHT22;7083;48.854;9.158;2022-12-08T11:28:21;3.80;99.90
14016;DHT22;7083;48.854;9.158;2022-12-08T11:30:56;3.80;99.90
14016;DHT22;7083;48.854;9.158;2022-12-08T11:33:25;3.80;99.90
14016;DHT22;7083;48.854;9.158;2022-12-08T11:35:56;3.90;99.90
14016;DHT22;7083;48.854;9.158;2022-12-08T11:38:26;3.90;99.90
14016;DHT22;7083;48.854;9.158;2022-12-08T11:40:59;4.00;99.90
14016;DHT22;7083;48.854;9.158;2022-12-08T11:43:33;4.00;99.90
14016;DHT22;7083;48.854;9.158;2022-12-08T11:46:07;4.10;99.90
14016;DHT22;7083;48.854;9.158;2022-12-08T11:48:41;4.20;99.90
14016;DHT22;7083;48.854;9.158;2022-12-08T11:51:12;4.20;99.90
14016;DHT22;7083;48.854;9.158;2022-12-08T11:53:46;4.20;99.90
14016;DHT22;7083;48.854;9.158;2022-12-08T11:56:20;4.20;99.90
14016;DHT22;7083;48.854;9.158;2022-12-08T11:58:52;4.30;99.90
14016;DHT22;7083;48.854;9.158;2022-12-08T12:01:22;4.30;99.90
14016;DHT22;7083;48.854;9.158;2022-12-08T12:03:57;4.40;99.90
14016;DHT22;7083;48.854;9.158;2022-12-08T12:06:45;4.40;99.90
14016;DHT22;7083;48.854;9.158;2022-12-08T12:09:17;4.40;99.90
14016;DHT22;7083;48.854;9.158;2022-12-08T12:11:59;4.40;99.90
14016;DHT22;7083;48.854;9.158;2022-12-08T12:15:19;4.40;99.90
14016;DHT22;7083;48.854;9.158;2022-12-08T12:17:53;4.40;99.90
14016;DHT22;7083;48.854;9.158;2022-12-08T12:20:24;4.40;99.90
14016;DHT22;7083;48.854;9.158;2022-12-08T12:22:56;4.40;99.90
14016;DHT22;7083;48.854;9.158;2022-12-08T12:25:26;4.40;99.90
14016;DHT22;7083;48.854;9.158;2022-12-08T12:27:57;4.40;99.90
14016;DHT22;7083;48.854;9.158;2022-12-08T12:30:27;4.40;99.90
14016;DHT22;7083;48.854;9.158;2022-12-08T12:32:59;4.40;99.90
14016;DHT22;7083;48.854;9.158;2022-12-08T12:35:35;4.40;99.90
14016;DHT22;7083;48.854;9.158;2022-12-08T12:38:05;4.40;99.90
14016;DHT22;7083;48.854;9.158;2022-12-08T12:40:58;4.40;99.90
14016;DHT22;7083;48.854;9.158;2022-12-08T12:43:30;4.50;99.90
14016;DHT22;7083;48.854;9.158;2022-12-08T12:46:39;4.40;99.90
14016;DHT22;7083;48.854;9.158;2022-12-08T12:52:36;4.40;99.90
14016;DHT22;7083;48.854;9.158;2022-12-08T12:55:23;4.40;99.90
14016;DHT22;7083;48.854;9.158;2022-12-08T12:57:52;4.50;99.90
14016;DHT22;7083;48.854;9.158;2022-12-08T13:00:22;4.50;99.90
14016;DHT22;7083;48.854;9.158;2022-12-08T13:02:51;4.50;99.90
14016;DHT22;7083;48.854;9.158;2022-12-08T13:05:20;4.50;99.90
14016;DHT22;7083;48.854;9.158;2022-12-08T13:07:50;4.50;99.90
14016;DHT22;7083;48.854;9.158;2022-12-08T13:10:20;4.50;99.90
14016;DHT22;7083;48.854;9.158;2022-12-08T13:13:05;4.40;99.90
14016;DHT22;7083;48.854;9.158;2022-12-08T13:15:36;4.40;99.90
14016;DHT22;7083;48.854;9.158;2022-12-08T13:18:04;4.50;99.90
14016;DHT22;7083;48.854;9.158;2022-12-08T13:20:40;4.50;99.90
14016;DHT22;7083;48.854;9.158;2022-12-08T13:23:24;4.50;99.90
14016;DHT22;7083;48.854;9.158;2022-12-08T13:26:07;4.50;99.90
14016;DHT22;7083;48.854;9.158;2022-12-08T13:29:14;4.40;99.90
14016;DHT22;7083;48.854;9.158;2022-12-08T13:31:43;4.40;99.90
14016;DHT22;7083;48.854;9.158;2022-12-08T13:34:15;4.30;99.90
14016;DHT22;7083;48.854;9.158;2022-12-08T13:36:51;4.30;99.90
14016;DHT22;7083;48.854;9.158;2022-12-08T13:39:20;4.30;99.90
14016;DHT22;7083;48.854;9.158;2022-12-08T13:41:57;4.30;99.90
14016;DHT22;7083;48.854;9.158;2022-12-08T13:44:30;4.30;99.90
14016;DHT22;7083;48.854;9.158;2022-12-08T13:46:59;4.30;99.90
14016;DHT22;7083;48.854;9.158;2022-12-08T13:49:29;4.30;99.90
14016;DHT22;7083;48.854;9.158;2022-12-08T13:51:59;4.30;99.90
14016;DHT22;7083;48.854;9.158;2022-12-08T13:54:29;4.30;99.90
14016;DHT22;7083;48.854;9.158;2022-12-08T13:56:59;4.30;99.90
14016;DHT22;7083;48.854;9.158;2022-12-08T13:59:30;4.30;99.90
14016;DHT22;7083;48.854;9.158;2022-12-08T14:02:03;4.30;99.90
14016;DHT22;7083;48.854;9.158;2022-12-08T14:04:34;4.30;99.90
14016;DHT22;7083;48.854;9.158;2022-12-08T14:07:01;4.20;99.90
14016;DHT22;7083;48.854;9.158;2022-12-08T14:09:32;4.20;99.90
14016;DHT22;7083;48.854;9.158;2022-12-08T14:12:02;4.10;99.90
14016;DHT22;7083;48.854;9.158;2022-12-08T14:14:35;4.10;99.90
14016;DHT22;7083;48.854;9.158;2022-12-08T14:17:05;4.10;99.90
14016;DHT22;7083;48.854;9.158;2022-12-08T14:19:33;4.00;99.90
14016;DHT22;7083;48.854;9.158;2022-12-08T14:22:02;4.00;99.90
14016;DHT22;7083;48.854;9.158;2022-12-08T14:24:31;4.00;99.90
14016;DHT22;7083;48.854;9.158;2022-12-08T14:26:59;4.00;99.90
14016;DHT22;7083;48.854;9.158;2022-12-08T14:29:39;4.00;99.90
14016;DHT22;7083;48.854;9.158;2022-12-08T14:32:22;4.00;99.90
14016;DHT22;7083;48.854;9.158;2022-12-08T14:34:58;3.90;99.90
14016;DHT22;7083;48.854;9.158;2022-12-08T14:37:26;3.90;99.90
14016;DHT22;7083;48.854;9.158;2022-12-08T14:39:57;3.90;99.90
14016;DHT22;7083;48.854;9.158;2022-12-08T14:42:26;3.90;99.90
14016;DHT22;7083;48.854;9.158;2022-12-08T14:45:01;3.90;99.90
14016;DHT22;7083;48.854;9.158;2022-12-08T14:47:31;3.90;99.90
14016;DHT22;7083;48.854;9.158;2022-12-08T14:49:58;3.80;99.90
14016;DHT22;7083;48.854;9.158;2022-12-08T14:52:25;3.80;99.90
14016;DHT22;7083;48.854;9.158;2022-12-08T14:54:53;3.80;99.90
14016;DHT22;7083;48.854;9.158;2022-12-08T14:57:21;3.70;99.90
14016;DHT22;7083;48.854;9.158;2022-12-08T14:59:48;3.70;99.90
14016;DHT22;7083;48.854;9.158;2022-12-08T15:02:26;3.70;99.90
14016;DHT22;7083;48.854;9.158;2022-12-08T15:04:58;3.60;99.90
14016;DHT22;7083;48.854;9.158;2022-12-08T15:07:28;3.60;99.90
14016;DHT22;7083;48.854;9.158;2022-12-08T15:10:19;3.60;99.90
14016;DHT22;7083;48.854;9.158;2022-12-08T15:12:59;3.50;99.90
14016;DHT22;7083;48.854;9.158;2022-12-08T15:15:27;3.50;99.90
14016;DHT22;7083;48.854;9.158;2022-12-08T15:18:01;3.40;99.90
14016;DHT22;7083;48.854;9.158;2022-12-08T15:20:39;3.40;99.90
14016;DHT22;7083;48.854;9.158;2022-12-08T15:23:18;3.40;99.90
14016;DHT22;7083;48.854;9.158;2022-12-08T15:25:45;3.30;99.90
14016;DHT22;7083;48.854;9.158;2022-12-08T15:28:14;3.30;99.90
14016;DHT22;7083;48.854;9.158;2022-12-08T15:30:41;3.30;99.90
14016;DHT22;7083;48.854;9.158;2022-12-08T15:33:09;3.20;99.90
14016;DHT22;7083;48.854;9.158;2022-12-08T15:35:36;3.20;99.90
14016;DHT22;7083;48.854;9.158;2022-12-08T15:38:04;3.20;99.90
14016;DHT22;7083;48.854;9.158;2022-12-08T15:40:30;3.20;99.90
14016;DHT22;7083;48.854;9.158;2022-12-08T15:42:57;3.10;99.90
14016;DHT22;7083;48.854;9.158;2022-12-08T15:45:27;3.10;99.90
14016;DHT22;7083;48.854;9.158;2022-12-08T15:47:56;3.10;99.90
14016;DHT22;7083;48.854;9.158;2022-12-08T15:50:24;3.10;99.90
14016;DHT22;7083;48.854;9.158;2022-12-08T15:52:50;3.10;99.90
14016;DHT22;7083;48.854;9.158;2022-12-08T15:55:19;3.00;99.90
14016;DHT22;7083;48.854;9.158;2022-12-08T15:57:48;3.00;99.90
14016;DHT22;7083;48.854;9.158;2022-12-08T16:00:35;3.10;99.90
14016;DHT22;7083;48.854;9.158;2022-12-08T16:03:03;3.10;99.90
14016;DHT22;7083;48.854;9.158;2022-12-08T16:05:31;3.00;99.90
14016;DHT22;7083;48.854;9.158;2022-12-08T16:07:58;3.00;99.90
14016;DHT22;7083;48.854;9.158;2022-12-08T16:10:26;3.00;99.90
14016;DHT22;7083;48.854;9.158;2022-12-08T16:12:52;3.00;99.90
14016;DHT22;7083;48.854;9.158;2022-12-08T16:15:39;3.00;99.90
14016;DHT22;7083;48.854;9.158;2022-12-08T16:18:08;2.90;99.90
14016;DHT22;7083;48.854;9.158;2022-12-08T16:20:39;2.90;99.90